createdAt,value
2022-08-14T00:02:26.934Z,21.50
2022-08-14T00:04:57.578Z,21.51
2022-08-14T00:07:25.862Z,21.56
2022-08-14T00:10:02.541Z,21.58
2022-08-14T00:12:53.461Z,21.51
2022-08-14T00:15:26.775Z,21.38
2022-08-14T00:17:59.253Z,21.25
2022-08-14T00:20:35.803Z,21.17
2022-08-14T00:23:14.662Z,21.21
2022-08-14T00:25:53.720Z,21.21
2022-08-14T00:28:35.621Z,21.25
2022-08-14T00:31:05.446Z,21.11
2022-08-14T00:33:39.328Z,20.90
2022-08-14T00:36:37.635Z,20.73
2022-08-14T00:39:18.372Z,20.61
2022-08-14T00:41:47.824Z,20.56
2022-08-14T00:44:26.616Z,20.50
2022-08-14T00:47:02.505Z,20.48
2022-08-14T00:49:38.380Z,20.43
2022-08-14T00:52:18.034Z,20.38
2022-08-14T00:54:57.937Z,20.30
2022-08-14T00:57:27.981Z,20.20
2022-08-14T00:59:57.603Z,20.13
2022-08-14T01:02:27.744Z,20.00
2022-08-14T01:05:01.628Z,19.93
2022-08-14T01:07:38.566Z,19.85
2022-08-14T01:10:07.881Z,19.79
2022-08-14T01:12:40.418Z,19.78
2022-08-14T01:15:10.023Z,19.74
2022-08-14T01:17:53.894Z,19.75
2022-08-14T01:20:32.540Z,19.88
2022-08-14T01:23:02.581Z,20.00
2022-08-14T01:25:33.703Z,20.06
2022-08-14T01:28:03.457Z,20.02
2022-08-14T01:30:37.917Z,19.94
2022-08-14T01:33:09.295Z,19.93
2022-08-14T01:36:03.545Z,20.05
2022-08-14T01:38:37.203Z,20.09
2022-08-14T01:41:14.831Z,20.08
2022-08-14T01:43:45.341Z,20.08
2022-08-14T01:46:26.479Z,19.95
2022-08-14T01:49:04.414Z,19.78
2022-08-14T01:51:36.653Z,19.66
2022-08-14T01:54:09.883Z,19.55
2022-08-14T01:56:44.910Z,19.60
2022-08-14T01:59:21.761Z,19.68
2022-08-14T02:01:58.891Z,19.76
2022-08-14T02:04:56.058Z,19.77
2022-08-14T02:07:34.330Z,19.80
2022-08-14T02:10:13.089Z,19.79
2022-08-14T02:12:44.780Z,19.77
2022-08-14T02:15:23.133Z,19.72
2022-08-14T02:17:51.793Z,19.66
2022-08-14T02:20:23.741Z,19.63
2022-08-14T02:22:54.989Z,19.60
2022-08-14T02:25:29.979Z,19.55
2022-08-14T02:28:25.439Z,19.52
2022-08-14T02:30:48.251Z,19.52
2022-08-14T02:33:21.451Z,19.47
2022-08-14T02:35:53.512Z,19.36
2022-08-14T02:38:30.424Z,19.24
2022-08-14T02:41:08.893Z,19.25
2022-08-14T02:43:46.364Z,19.24
2022-08-14T02:46:20.495Z,19.25
2022-08-14T02:49:04.970Z,19.31
2022-08-14T02:51:36.524Z,19.32
2022-08-14T02:54:07.496Z,19.18
2022-08-14T02:57:15.642Z,19.06
2022-08-14T02:59:33.825Z,19.05
2022-08-14T03:02:03.864Z,19.06
2022-08-14T03:04:33.324Z,19.06
2022-08-14T03:07:07.499Z,19.05
2022-08-14T03:10:24.232Z,18.95
2022-08-14T03:12:32.438Z,18.79
2022-08-14T03:15:05.242Z,18.63
2022-08-14T03:17:56.605Z,18.50
2022-08-14T03:20:23.203Z,18.38
2022-08-14T03:22:52.757Z,18.30
2022-08-14T03:25:22.690Z,18.36
2022-08-14T03:27:58.400Z,18.29
2022-08-14T03:30:39.323Z,18.25
2022-08-14T03:33:11.699Z,18.28
2022-08-14T03:36:05.534Z,18.32
2022-08-14T03:39:13.885Z,18.41
2022-08-14T03:41:23.236Z,18.49
2022-08-14T03:43:57.893Z,18.55
2022-08-14T03:46:52.289Z,18.52
2022-08-14T03:49:29.260Z,18.52
2022-08-14T03:52:00.865Z,18.52
2022-08-14T03:54:30.369Z,18.44
2022-08-14T03:57:02.769Z,18.44
2022-08-14T03:59:35.339Z,18.39
2022-08-14T04:02:31.876Z,18.43
2022-08-14T04:04:53.607Z,18.55
2022-08-14T04:07:22.630Z,18.63
2022-08-14T04:09:52.754Z,18.74
2022-08-14T04:12:26.106Z,18.79
2022-08-14T04:14:57.932Z,18.85
2022-08-14T04:17:26.511Z,18.85
2022-08-14T04:19:55.851Z,18.76
2022-08-14T04:22:25.540Z,18.69
2022-08-14T04:24:54.324Z,18.83
2022-08-14T04:27:23.443Z,18.94
2022-08-14T04:29:51.974Z,19.04
2022-08-14T04:32:57.772Z,19.09
2022-08-14T04:35:11.404Z,19.21
2022-08-14T04:37:53.691Z,19.30
2022-08-14T04:40:32.414Z,19.31
2022-08-14T04:43:14.430Z,19.30
2022-08-14T04:45:51.359Z,19.35
2022-08-14T04:48:39.694Z,19.35
2022-08-14T04:51:12.248Z,19.48
2022-08-14T04:53:43.153Z,19.56
2022-08-14T04:56:30.799Z,19.68
2022-08-14T04:59:10.653Z,19.84
2022-08-14T05:01:47.838Z,20.00
2022-08-14T05:04:20.779Z,20.13
2022-08-14T05:06:54.483Z,20.25
2022-08-14T05:09:24.404Z,20.36
2022-08-14T05:11:53.245Z,20.44
2022-08-14T05:14:45.721Z,20.51
2022-08-14T05:17:12.523Z,20.58
2022-08-14T05:19:45.024Z,20.64
2022-08-14T05:22:31.314Z,20.74
2022-08-14T05:24:59.772Z,20.86
2022-08-14T05:27:30.977Z,20.99
2022-08-14T05:30:00.035Z,21.08
2022-08-14T05:32:28.590Z,21.14
2022-08-14T05:34:59.662Z,21.26
2022-08-14T05:37:29.740Z,21.38
2022-08-14T05:40:00.538Z,21.45
2022-08-14T05:42:31.964Z,21.56
2022-08-14T05:45:04.219Z,21.66
2022-08-14T05:47:39.379Z,21.74
2022-08-14T05:50:18.469Z,21.80
2022-08-14T05:52:49.831Z,21.89
2022-08-14T05:55:22.898Z,22.04
2022-08-14T05:57:53.271Z,22.20
2022-08-14T06:00:24.693Z,22.35
2022-08-14T06:03:00.070Z,22.46
2022-08-14T06:05:30.279Z,22.60
2022-08-14T06:07:58.942Z,22.70
2022-08-14T06:10:28.345Z,22.87
2022-08-14T06:12:58.135Z,22.96
2022-08-14T06:15:30.429Z,23.08
2022-08-14T06:18:00.236Z,23.17
2022-08-14T06:20:31.593Z,23.25
2022-08-14T06:23:02.714Z,23.37
2022-08-14T06:25:33.122Z,23.42
2022-08-14T06:28:03.849Z,23.51
2022-08-14T06:30:46.151Z,23.50
2022-08-14T06:33:17.985Z,23.54
2022-08-14T06:35:50.180Z,23.51
2022-08-14T06:38:19.545Z,23.53
2022-08-14T06:40:50.991Z,23.57
2022-08-14T06:43:27.048Z,23.69
2022-08-14T06:45:58.655Z,23.77
2022-08-14T06:48:29.224Z,23.81
2022-08-14T06:51:02.686Z,23.97
2022-08-14T06:53:31.911Z,24.11
2022-08-14T06:56:02.179Z,24.23
2022-08-14T06:58:32.231Z,24.36
2022-08-14T07:01:11.813Z,24.43
2022-08-14T07:03:50.845Z,24.40
2022-08-14T07:06:45.533Z,24.44
2022-08-14T07:09:11.633Z,24.57
2022-08-14T07:11:39.961Z,24.62
2022-08-14T07:14:08.888Z,24.64
2022-08-14T07:16:38.241Z,24.58
2022-08-14T07:19:08.484Z,24.65
2022-08-14T07:21:39.863Z,24.76
2022-08-14T07:24:09.736Z,24.86
2022-08-14T07:26:51.201Z,24.97
2022-08-14T07:29:24.063Z,25.12
2022-08-14T07:31:54.586Z,25.22
2022-08-14T07:34:36.103Z,25.35
2022-08-14T07:37:07.265Z,25.43
2022-08-14T07:39:35.678Z,25.47
2022-08-14T07:42:03.973Z,25.47
2022-08-14T07:44:45.718Z,25.52
2022-08-14T07:47:16.663Z,25.68
2022-08-14T07:49:55.506Z,25.79
2022-08-14T07:52:30.705Z,25.91
2022-08-14T07:55:02.085Z,25.96
2022-08-14T07:57:30.374Z,25.99
2022-08-14T07:59:58.882Z,26.09
2022-08-14T08:02:32.494Z,26.11
2022-08-14T08:05:01.828Z,26.18
2022-08-14T08:07:33.097Z,26.39
2022-08-14T08:10:31.153Z,26.47
2022-08-14T08:13:14.117Z,26.59
2022-08-14T08:15:44.314Z,26.78
2022-08-14T08:18:20.442Z,26.97
2022-08-14T08:20:59.509Z,27.20
2022-08-14T08:23:40.636Z,27.29
2022-08-14T08:26:19.386Z,27.47
2022-08-14T08:28:57.162Z,27.61
2022-08-14T08:31:32.881Z,27.53
2022-08-14T08:34:06.258Z,27.49
2022-08-14T08:36:41.226Z,27.41
2022-08-14T08:39:17.977Z,27.30
2022-08-14T08:41:53.774Z,27.20
2022-08-14T08:44:31.689Z,27.30
2022-08-14T08:47:06.687Z,27.48
2022-08-14T08:49:52.824Z,27.71
2022-08-14T08:52:31.680Z,28.04
2022-08-14T08:55:04.326Z,28.18
2022-08-14T08:57:36.045Z,28.11
2022-08-14T09:00:24.232Z,27.96
2022-08-14T09:02:57.819Z,27.97
2022-08-14T09:05:27.210Z,28.04
2022-08-14T09:07:56.360Z,27.84
2022-08-14T09:10:27.164Z,27.59
2022-08-14T09:12:56.416Z,27.82
2022-08-14T09:15:24.739Z,27.62
2022-08-14T09:17:54.650Z,27.61
2022-08-14T09:20:26.289Z,27.80
2022-08-14T09:23:00.515Z,28.11
2022-08-14T09:26:00.415Z,27.86
2022-08-14T09:28:21.125Z,27.95
2022-08-14T09:30:54.563Z,28.27
2022-08-14T09:33:56.104Z,28.40
2022-08-14T09:36:40.675Z,28.19
2022-08-14T09:39:22.862Z,28.53
2022-08-14T09:42:20.221Z,28.77
2022-08-14T09:45:07.950Z,29.00
2022-08-14T09:47:49.175Z,29.23
2022-08-14T09:50:22.188Z,29.08
2022-08-14T09:52:57.703Z,29.32
2022-08-14T09:55:28.254Z,29.54
2022-08-14T09:58:19.229Z,29.65
2022-08-14T10:00:52.750Z,29.80
2022-08-14T10:03:33.364Z,29.91
2022-08-14T10:06:09.236Z,29.79
2022-08-14T10:08:51.190Z,29.65
2022-08-14T10:11:23.054Z,29.30
2022-08-14T10:13:55.747Z,29.05
2022-08-14T10:16:33.262Z,28.77
2022-08-14T10:19:07.102Z,28.78
2022-08-14T10:21:38.805Z,28.80
2022-08-14T10:24:36.401Z,29.03
2022-08-14T10:27:06.656Z,29.22
2022-08-14T10:29:36.179Z,29.49
2022-08-14T10:32:18.224Z,29.87
2022-08-14T10:35:05.378Z,30.20
2022-08-14T10:37:40.199Z,30.22
2022-08-14T11:17:49.173Z,28.72
2022-08-14T11:20:20.748Z,28.72
2022-08-14T11:22:58.832Z,28.69
2022-08-14T11:25:36.734Z,28.66
2022-08-14T11:28:19.204Z,28.65
2022-08-14T11:30:53.881Z,28.67
2022-08-14T11:33:25.820Z,28.72
2022-08-14T11:35:59.555Z,28.73
2022-08-14T11:38:29.332Z,28.77
2022-08-14T11:40:58.805Z,28.88
2022-08-14T11:43:30.636Z,28.94
2022-08-14T11:46:03.663Z,28.99
2022-08-14T11:49:03.576Z,29.07
2022-08-14T11:51:50.909Z,29.25
2022-08-14T11:54:34.711Z,29.58
2022-08-14T11:57:04.468Z,29.54
2022-08-14T11:59:34.269Z,29.31
2022-08-14T12:02:39.164Z,29.39
2022-08-14T12:05:09.215Z,29.70
2022-08-14T12:07:50.079Z,30.07
2022-08-14T12:10:25.575Z,30.32
2022-08-14T12:12:56.560Z,30.50
2022-08-14T12:15:34.179Z,30.74
2022-08-14T12:18:05.088Z,31.05
2022-08-14T12:20:45.954Z,31.44
2022-08-14T12:23:24.735Z,31.48
2022-08-14T12:26:39.455Z,31.57
2022-08-14T12:29:08.888Z,31.56
2022-08-14T12:31:46.761Z,31.50
2022-08-14T12:34:19.990Z,31.43
2022-08-14T12:36:51.879Z,31.56
2022-08-14T12:39:23.747Z,31.62
2022-08-14T12:41:57.371Z,31.35
2022-08-14T12:44:35.180Z,31.39
2022-08-14T12:47:15.059Z,31.56
2022-08-14T12:49:53.839Z,31.70
2022-08-14T12:52:41.755Z,31.64
2022-08-14T12:55:22.141Z,31.70
2022-08-14T12:57:53.715Z,31.76
2022-08-14T13:00:25.613Z,31.74
2022-08-14T13:02:57.152Z,31.79
2022-08-14T13:05:29.268Z,31.87
2022-08-14T13:08:00.858Z,31.79
2022-08-14T13:10:47.218Z,31.79
2022-08-14T13:13:22.437Z,31.78
2022-08-14T13:15:56.001Z,31.71
2022-08-14T13:18:28.339Z,31.64
2022-08-14T13:21:02.301Z,31.67
2022-08-14T13:23:37.392Z,31.66
2022-08-14T13:26:08.831Z,31.74
2022-08-14T13:29:01.465Z,31.79
2022-08-14T13:31:34.596Z,31.51
2022-08-14T13:34:04.559Z,31.09
2022-08-14T13:36:51.603Z,31.07
2022-08-14T13:39:25.923Z,31.42
2022-08-14T13:41:55.716Z,31.68
2022-08-14T13:44:28.911Z,31.83
2022-08-14T13:46:58.866Z,31.80
2022-08-14T13:49:28.975Z,31.63
2022-08-14T13:52:02.537Z,31.55
2022-08-14T13:54:38.184Z,31.34
2022-08-14T13:57:09.918Z,31.20
2022-08-14T13:59:42.788Z,31.31
2022-08-14T14:02:11.855Z,31.33
2022-08-14T14:05:04.546Z,31.39
2022-08-14T14:07:39.330Z,31.39
2022-08-14T14:10:15.070Z,31.47
2022-08-14T14:12:56.147Z,31.39
2022-08-14T14:15:25.338Z,31.32
2022-08-14T14:18:03.848Z,31.20
2022-08-14T14:20:35.435Z,31.21
2022-08-14T14:23:11.734Z,31.15
2022-08-14T14:25:51.403Z,31.22
2022-08-14T14:28:31.611Z,31.17
2022-08-14T14:31:05.998Z,31.15
2022-08-14T14:33:47.050Z,31.18
2022-08-14T14:36:21.525Z,30.82
2022-08-14T14:38:56.254Z,30.55
2022-08-14T14:41:37.767Z,30.58
2022-08-14T14:44:08.882Z,30.67
2022-08-14T14:46:41.471Z,30.76
2022-08-14T14:49:15.062Z,30.83
2022-08-14T14:51:46.680Z,30.85
2022-08-14T14:54:30.045Z,31.00
2022-08-14T14:57:02.697Z,30.94
2022-08-14T14:59:33.490Z,30.97
2022-08-14T15:02:09.311Z,30.97
2022-08-14T15:04:43.628Z,30.93
2022-08-14T15:07:13.185Z,30.84
2022-08-14T15:09:45.156Z,30.87
2022-08-14T15:12:34.792Z,30.87
2022-08-14T15:15:09.577Z,30.79
2022-08-14T15:17:41.662Z,30.81
2022-08-14T15:20:17.321Z,30.63
2022-08-14T15:23:07.981Z,30.44
2022-08-14T15:25:41.321Z,30.45
2022-08-14T15:28:13.126Z,30.59
2022-08-14T15:30:51.005Z,30.62
2022-08-14T15:33:37.729Z,30.56
2022-08-14T15:36:29.375Z,30.56
2022-08-14T15:38:59.137Z,30.46
2022-08-14T15:41:41.608Z,30.40
2022-08-14T15:44:24.670Z,30.41
2022-08-14T15:46:54.761Z,30.41
2022-08-14T15:49:24.460Z,30.37
2022-08-14T15:51:59.849Z,30.30
2022-08-14T15:54:31.293Z,30.32
2022-08-14T15:57:02.240Z,30.27
2022-08-14T15:59:48.129Z,30.27
2022-08-14T16:02:18.713Z,30.16
2022-08-14T16:04:50.742Z,30.07
2022-08-14T16:07:22.318Z,29.98
2022-08-14T16:10:27.295Z,29.87
2022-08-14T16:12:47.597Z,29.81
2022-08-14T16:15:24.857Z,29.78
2022-08-14T16:18:02.741Z,29.70
2022-08-14T16:20:41.626Z,29.61
2022-08-14T16:23:14.830Z,29.56
2022-08-14T16:25:46.576Z,29.52
2022-08-14T16:28:27.673Z,29.50
2022-08-14T16:31:00.373Z,29.45
2022-08-14T16:33:59.104Z,29.41
2022-08-14T16:36:31.445Z,29.35
2022-08-14T16:39:02.109Z,29.29
2022-08-14T16:41:31.615Z,29.22
2022-08-14T16:44:04.731Z,29.16
2022-08-14T16:46:38.334Z,29.12
2022-08-14T16:49:14.195Z,29.06
2022-08-14T16:51:45.031Z,28.98
2022-08-14T16:54:34.193Z,28.95
2022-08-14T16:57:16.862Z,28.91
2022-08-14T16:59:51.857Z,28.85
2022-08-14T17:02:36.924Z,28.81
2022-08-14T17:05:22.303Z,28.75
2022-08-14T17:08:32.282Z,28.68
2022-08-14T17:11:16.609Z,28.63
2022-08-14T17:14:11.405Z,28.56
2022-08-14T17:17:00.970Z,28.48
2022-08-14T17:19:41.139Z,28.40
2022-08-14T17:22:12.504Z,28.21
2022-08-14T17:24:57.088Z,28.06
2022-08-14T17:27:32.624Z,27.92
2022-08-14T17:30:02.634Z,27.79
2022-08-14T17:32:55.825Z,27.64
2022-08-14T17:35:58.778Z,27.41
2022-08-14T17:38:39.292Z,27.21
2022-08-14T17:41:23.635Z,26.94
2022-08-14T17:46:43.224Z,26.51
2022-08-14T17:49:18.266Z,26.36
2022-08-14T17:52:07.640Z,26.23
2022-08-14T17:54:59.105Z,26.09
2022-08-14T17:57:46.133Z,25.96
2022-08-14T18:00:17.954Z,25.86
2022-08-14T18:02:50.972Z,25.82
2022-08-14T18:05:22.824Z,25.66
2022-08-14T18:08:32.037Z,25.50
2022-08-14T18:10:56.163Z,25.30
2022-08-14T18:13:50.218Z,25.13
2022-08-14T18:16:20.581Z,25.09
2022-08-14T18:18:52.479Z,25.05
2022-08-14T18:21:41.472Z,25.04
2022-08-14T18:24:20.037Z,25.01
2022-08-14T18:27:09.139Z,25.03
2022-08-14T18:29:54.912Z,25.07
2022-08-14T18:32:47.313Z,25.00
2022-08-14T18:35:45.296Z,24.92
2022-08-14T18:38:26.074Z,24.85
2022-08-14T18:41:17.000Z,24.69
2022-08-14T18:43:59.172Z,24.60
2022-08-14T18:46:59.593Z,24.50
2022-08-14T18:49:18.337Z,24.42
2022-08-14T18:51:47.122Z,24.37
2022-08-14T18:54:30.006Z,24.28
2022-08-14T18:57:05.553Z,24.21
2022-08-14T18:59:43.053Z,24.22
2022-08-14T19:02:34.447Z,24.24
2022-08-14T19:05:12.370Z,24.18
2022-08-14T19:07:41.163Z,24.14
2022-08-14T19:10:16.808Z,24.11
2022-08-14T19:13:01.522Z,24.03
2022-08-14T19:15:34.744Z,23.97
2022-08-14T19:18:26.401Z,23.93
2022-08-14T19:20:59.710Z,23.86
2022-08-14T19:23:42.497Z,23.77
2022-08-14T19:26:36.741Z,23.75
2022-08-14T19:29:23.538Z,23.70
2022-08-14T19:31:55.404Z,23.62
2022-08-14T19:34:37.308Z,23.52
2022-08-14T19:37:10.143Z,23.41
2022-08-14T19:39:53.754Z,23.27
2022-08-14T19:42:28.314Z,23.21
2022-08-14T19:45:01.109Z,23.13
2022-08-14T19:47:38.721Z,23.14
2022-08-14T19:50:37.904Z,23.11
2022-08-14T19:53:05.369Z,23.03
2022-08-14T19:55:45.972Z,22.99
2022-08-14T19:58:14.839Z,22.93
2022-08-14T20:00:57.277Z,22.89
2022-08-14T20:03:26.260Z,22.80
2022-08-14T20:06:18.206Z,22.76
2022-08-14T20:10:58.598Z,22.76
2022-08-14T20:11:44.559Z,22.70
2022-08-14T20:14:31.428Z,22.61
2022-08-14T20:17:06.637Z,22.55
2022-08-14T20:19:37.817Z,22.51
2022-08-14T20:22:37.237Z,22.47
2022-08-14T20:25:14.058Z,22.39
2022-08-14T20:27:45.085Z,22.42
2022-08-14T20:30:33.674Z,22.39
2022-08-14T20:33:11.214Z,22.39
2022-08-14T20:35:47.586Z,22.37
2022-08-14T20:38:29.276Z,22.25
2022-08-14T20:41:06.691Z,22.20
2022-08-14T20:43:53.050Z,22.18
2022-08-14T20:46:30.027Z,22.18
2022-08-14T20:49:03.889Z,22.20
2022-08-14T20:51:47.419Z,22.08
2022-08-14T20:54:33.880Z,22.00
2022-08-14T20:57:09.780Z,21.95
2022-08-14T20:59:43.686Z,21.85
2022-08-14T21:02:46.194Z,21.74
2022-08-14T21:05:33.466Z,21.62
2022-08-14T21:08:09.956Z,21.50
2022-08-14T21:10:54.971Z,21.50
2022-08-14T21:14:20.695Z,21.54
2022-08-14T21:16:33.528Z,21.60
2022-08-14T21:19:07.042Z,21.65
2022-08-14T21:21:41.743Z,21.71
2022-08-14T21:24:38.502Z,21.75
2022-08-14T21:27:19.834Z,21.74
2022-08-14T21:29:55.592Z,21.73
2022-08-14T21:32:50.242Z,21.70
2022-08-14T21:35:29.879Z,21.58
2022-08-14T21:37:58.799Z,21.57
2022-08-14T21:40:41.628Z,21.62
2022-08-14T21:43:18.859Z,21.62
2022-08-14T21:45:51.719Z,21.60
2022-08-14T21:48:25.233Z,21.60
2022-08-14T21:51:53.003Z,21.60
2022-08-14T21:53:58.041Z,21.59
2022-08-14T21:56:38.631Z,21.55
2022-08-14T21:59:17.914Z,21.54
2022-08-14T22:02:01.035Z,21.55
2022-08-14T22:04:40.563Z,21.45
2022-08-14T22:07:17.270Z,21.28
2022-08-14T22:09:55.016Z,20.99
2022-08-14T22:12:45.420Z,21.11
2022-08-14T22:15:18.151Z,21.13
2022-08-14T22:17:54.094Z,21.16
2022-08-14T22:20:28.791Z,21.18
2022-08-14T22:23:00.945Z,21.13
2022-08-14T22:25:34.490Z,21.10
2022-08-14T22:28:15.805Z,21.12
2022-08-14T22:30:45.811Z,21.12
2022-08-14T22:33:16.540Z,21.11
2022-08-14T22:35:46.275Z,21.07
2022-08-14T22:38:37.953Z,21.08
2022-08-14T22:41:25.651Z,21.05
2022-08-14T22:44:06.453Z,21.07
2022-08-14T22:46:36.534Z,21.03
2022-08-14T22:49:16.550Z,21.05
2022-08-14T22:52:03.768Z,21.02
2022-08-14T22:54:54.449Z,21.01
2022-08-14T22:57:23.232Z,21.02
2022-08-14T22:59:52.565Z,21.01
2022-08-14T23:02:30.392Z,20.99
2022-08-14T23:05:04.063Z,20.94
2022-08-14T23:08:56.658Z,20.85
2022-08-14T23:10:34.116Z,20.79
2022-08-14T23:13:06.752Z,20.74
2022-08-14T23:15:37.549Z,20.67
2022-08-14T23:18:07.615Z,20.65
2022-08-14T23:20:42.615Z,20.68
2022-08-14T23:23:22.660Z,20.67
2022-08-14T23:25:59.003Z,20.68
2022-08-14T23:28:57.258Z,20.65
2022-08-14T23:31:35.647Z,20.70
2022-08-14T23:34:07.765Z,20.68
2022-08-14T23:36:54.142Z,20.67
2022-08-14T23:39:30.000Z,20.69
2022-08-14T23:42:04.606Z,20.67
2022-08-14T23:44:38.127Z,20.61
2022-08-14T23:47:10.696Z,20.60
2022-08-14T23:49:56.754Z,20.54
2022-08-14T23:53:06.331Z,20.38
2022-08-14T23:55:19.315Z,20.30
2022-08-14T23:57:57.573Z,20.24
